createdAt,value
2022-10-28T03:35:18.136Z,98645.05
2022-10-28T03:40:19.836Z,98645.05
2022-10-28T03:45:21.891Z,98650.79
2022-10-28T03:50:24.192Z,98642.16
2022-10-28T03:55:25.943Z,98642.16
2022-10-28T04:00:27.780Z,98633.46
2022-10-28T04:05:29.822Z,98633.46
2022-10-28T04:10:31.888Z,98630.29
2022-10-28T04:15:33.719Z,98630.29
2022-10-28T04:20:35.460Z,98614.87
2022-10-28T04:25:37.316Z,98614.87
2022-10-28T04:30:39.019Z,98612.2
2022-10-28T04:35:41.255Z,98612.2
2022-10-28T04:40:43.042Z,98606.53
2022-10-28T04:45:45.412Z,98606.53
2022-10-28T04:50:47.581Z,98604.73
2022-10-28T04:55:49.286Z,98604.73
2022-10-28T05:00:51.079Z,98610.63
2022-10-28T05:05:52.878Z,98610.63
2022-10-28T05:10:54.628Z,98601.45
2022-10-28T05:15:56.337Z,98595.83
2022-10-28T05:20:57.968Z,98595.83
2022-10-28T05:25:59.628Z,98606.89
2022-10-28T05:31:01.526Z,98606.89
2022-10-28T05:36:03.441Z,98618.55
2022-10-28T05:41:05.465Z,98618.55
2022-10-28T05:46:07.567Z,98626.19
2022-10-28T05:51:09.288Z,98626.19
2022-10-28T05:56:11.214Z,98638.66
2022-10-28T06:01:13.383Z,98638.66
2022-10-28T06:06:15.218Z,98648.7
2022-10-28T06:11:15.436Z,98648.7
2022-10-28T06:16:17.168Z,98651
2022-10-28T06:21:18.878Z,98651
2022-10-28T06:26:20.651Z,98652.81
2022-10-28T06:31:22.404Z,98652.81
2022-10-28T06:36:24.122Z,98646.21
2022-10-28T06:41:25.993Z,98645.92
2022-10-28T06:46:27.715Z,98645.92
2022-10-28T06:51:31.392Z,98651.1
2022-10-28T06:56:33.106Z,98651.1
2022-10-28T07:01:35.309Z,98648.09
2022-10-28T07:06:37.348Z,98648.09
2022-10-28T07:11:39.125Z,98647.06
2022-10-28T07:16:41.317Z,98647.06
2022-10-28T07:21:43.527Z,98657.07
2022-10-28T07:26:47.154Z,98657.07
2022-10-28T07:31:49.300Z,98662.59
2022-10-28T07:36:51.528Z,98662.59
2022-10-28T07:41:53.316Z,98660.2
2022-10-28T07:46:58.970Z,98660.2
2022-10-28T07:52:00.749Z,98643.41
2022-10-28T07:57:02.556Z,98643.41
2022-10-28T08:02:04.880Z,98638.08
2022-10-28T08:07:06.770Z,98647.75
2022-10-28T08:12:09.364Z,98647.75
2022-10-28T08:17:11.197Z,98648.94
2022-10-28T08:22:13.244Z,98648.94
2022-10-28T08:27:15.158Z,98663.23
2022-10-28T08:32:16.868Z,98663.23
2022-10-28T08:37:18.951Z,98671.44
2022-10-28T08:42:26.733Z,98671.44
2022-10-28T08:47:34.426Z,98661.5
2022-10-28T08:52:39.894Z,98661.5
2022-10-28T08:57:44.353Z,98667.69
2022-10-28T09:02:50.603Z,98667.69
2022-10-28T09:07:53.595Z,98659.95
2022-10-28T09:12:59.666Z,98659.95
2022-10-28T09:28:18.001Z,98656.73
2022-10-28T09:38:28.306Z,98665.23
2022-10-28T09:43:32.122Z,98661.31
2022-10-28T09:48:36.771Z,98661.31
2022-10-28T09:53:40.604Z,98663.08
2022-10-28T09:58:45.471Z,98663.08
2022-10-28T10:03:48.991Z,98658.11
2022-10-28T10:08:50.735Z,98658.11
2022-10-28T10:13:53.892Z,98657.19
2022-10-28T10:18:57.603Z,98657.19
2022-10-28T10:23:59.411Z,98656.08
2022-10-28T10:29:01.215Z,98656.08
2022-10-28T10:34:03.017Z,98660.89
2022-10-28T10:49:18.323Z,98653.58
2022-10-28T10:54:20.696Z,98653.58
2022-10-28T10:59:24.518Z,98643.52
2022-10-28T11:04:27.760Z,98643.52
2022-10-28T11:09:30.767Z,98642.62
2022-10-28T11:14:32.632Z,98642.62
2022-10-28T11:19:35.219Z,98645.17
2022-10-28T11:24:44.237Z,98645.17
2022-10-28T11:29:46.461Z,98630.67
2022-10-28T11:40:08.037Z,98622.41
2022-10-28T11:45:12.092Z,98622.41
2022-10-28T11:55:25.308Z,98614.31
2022-10-28T12:10:47.634Z,98607.01
2022-10-28T12:15:54.940Z,98599.69
2022-10-28T12:20:59.649Z,98599.69
2022-10-28T12:26:03.935Z,98593.42
2022-10-28T12:31:07.918Z,98593.42
2022-10-28T12:36:16.356Z,98590.31
2022-10-28T12:41:21.406Z,98590.31
2022-10-28T12:46:28.811Z,98583.42
2022-10-28T12:51:33.318Z,98583.42
2022-10-28T12:56:37.037Z,98576.99
2022-10-28T13:01:39.951Z,98576.99
2022-10-28T13:22:19.534Z,98553.44
2022-10-28T13:27:21.928Z,98553.44
2022-10-28T13:37:36.540Z,98557.86
2022-10-28T13:47:43.520Z,98565.23
2022-10-28T13:52:45.926Z,98570.76
2022-10-28T13:57:49.901Z,98570.76
2022-10-28T14:02:56.033Z,98570.1
2022-10-28T14:08:00.563Z,98570.1
2022-10-28T14:13:05.481Z,98566.3
2022-10-28T14:33:35.351Z,98584.13
2022-10-28T14:43:47.351Z,98572.16
2022-10-28T14:48:50.657Z,98568.55
2022-10-28T14:53:55.802Z,98568.55
2022-10-28T14:58:58.853Z,98562.03
2022-10-28T15:04:01.474Z,98562.03
2022-10-28T15:09:11.821Z,98550.86
2022-10-28T15:14:15.095Z,98550.86
2022-10-28T15:19:18.421Z,98533.47
2022-10-28T15:24:20.171Z,98531.94
2022-10-28T15:29:22.192Z,98531.94
2022-10-28T15:34:24.068Z,98536.98
2022-10-28T15:39:25.932Z,98536.98
2022-10-28T15:44:31.164Z,98542.96
2022-10-28T15:49:35.167Z,98542.96
2022-10-28T15:54:36.949Z,98537.08
2022-10-28T15:59:38.953Z,98537.08
2022-10-28T16:04:41.804Z,98525.66
2022-10-28T16:09:46.636Z,98525.66
2022-10-28T16:19:56.529Z,98535.69
2022-10-28T16:24:58.663Z,98541.75
2022-10-28T16:30:01.269Z,98541.75
2022-10-28T16:35:03.635Z,98539.55
2022-10-28T16:45:15.296Z,98541.89
2022-10-28T16:50:17.612Z,98544.8
2022-10-28T16:55:19.877Z,98544.8
2022-10-28T17:00:22.143Z,98550.41
2022-10-28T17:05:24.791Z,98550.41
2022-10-28T17:10:27.585Z,98550.17
2022-10-28T17:15:29.638Z,98550.17
2022-10-28T17:20:31.692Z,98544.89
2022-10-28T17:25:34.531Z,98544.89
2022-10-28T17:30:37.881Z,98553.97
2022-10-28T17:35:40.769Z,98553.97
2022-10-28T17:40:43.235Z,98546.88
2022-10-28T17:45:45.143Z,98546.88
2022-10-28T17:55:56.313Z,98547.91
2022-10-28T18:00:59.329Z,98552.67
2022-10-28T18:06:01.995Z,98555.06
2022-10-28T18:11:04.627Z,98555.06
2022-10-28T18:16:08.691Z,98544.72
2022-10-28T18:21:12.776Z,98544.72
2022-10-28T18:26:15.977Z,98541.4
2022-10-28T18:31:19.491Z,98541.4
2022-10-28T18:36:24.010Z,98529.05
2022-10-28T18:41:27.716Z,98529.05
2022-10-28T18:46:33.860Z,98525.06
2022-10-28T18:51:36.567Z,98525.06
2022-10-28T18:56:39.302Z,98529.63
2022-10-28T19:01:45.940Z,98529.63
2022-10-28T19:06:50.074Z,98520.27
2022-10-28T19:11:52.590Z,98520.27
2022-10-28T19:16:54.971Z,98526.08
2022-10-28T19:21:57.121Z,98531.58
2022-10-28T19:27:00.847Z,98531.58
2022-10-28T19:32:03.781Z,98542.02
2022-10-28T19:37:06.156Z,98542.02
2022-10-28T19:42:10.719Z,98543.97
2022-10-28T19:47:12.736Z,98543.97
2022-10-28T19:52:14.928Z,98546.39
2022-10-28T19:57:17.452Z,98546.39
2022-10-28T20:02:20.322Z,98532.33
2022-10-28T20:07:24.083Z,98532.33
2022-10-28T20:12:26.568Z,98535.52
2022-10-28T20:17:28.514Z,98535.52
2022-10-28T20:22:30.608Z,98549.49
2022-10-28T20:27:32.726Z,98549.49
2022-10-28T20:32:34.554Z,98546.25
2022-10-28T20:37:36.315Z,98546.25
2022-10-28T20:42:38.257Z,98550.89
2022-10-28T20:47:40.027Z,98550.89
2022-10-28T20:52:41.837Z,98550.89
2022-10-28T20:57:43.739Z,98550.89
2022-10-28T21:02:46.018Z,98550.89
2022-10-28T21:07:48.298Z,98550.89
2022-10-28T21:12:50.124Z,98550.89
2022-10-28T21:17:52.474Z,98550.89
2022-10-28T21:22:56.666Z,98550.89
2022-10-28T21:27:59.734Z,98550.89
2022-10-28T21:33:02.145Z,98550.89
